CheckWX is a tool to help pilots better visualize weather data.  It is not intended as a substitute for an official pre-flight weather briefing.

04:43:06 UTC

EGPF TAF
Glasgow International Airport
Glasgow, United Kingdom
TAF EGPF 250455Z 2506/2606 VRB03KT 9999 SCT030 PROB30 2506/2507 0300 FG VV/// BECMG 2508/2511 22010KT PROB30 TEMPO 2511/2520 23015G25KT TEMPO 2517/2604 6000 RA PROB40 TEMPO 2521/2604 3000 RADZ BKN008 BECMG 2603/2606 28007KT

May-25@
06:00 UTC

May-25 @ 06:00 UTC

May-25@
08:00 UTC

May-25 @ 08:00 UTC

TAF EGPF 250455Z 2506/2606 VRB03KT 9999 SCT030

Expired

Wind
  • Variable at 3 KTS
Cloud Levels
  • Scattered at 3,000' AGL

May-25@
06:00 UTC

May-25 @ 06:00 UTC

May-25@
07:00 UTC

May-25 @ 07:00 UTC

PROB30 2506/2507 0300 FG VV///

Expired

Conditions
Fog
Cloud Levels

May-25@
08:00 UTC

May-25 @ 08:00 UTC

May-26@
03:00 UTC

May-26 @ 03:00 UTC

BECMG 2508/2511 22010KT

Expired

Wind
  • 220° at 10 KTS
Cloud Levels
  • Scattered at 3,000' AGL

May-25@
11:00 UTC

May-25 @ 11:00 UTC

May-25@
20:00 UTC

May-25 @ 20:00 UTC

PROB30 TEMPO 2511/2520 23015G25KT

Expired

Wind
  • 230° at 15 KTS
  • {Gusting to 25 KTS
Cloud Levels

May-25@
17:00 UTC

May-25 @ 17:00 UTC

May-26@
04:00 UTC

May-26 @ 04:00 UTC

TEMPO 2517/2604 6000 RA

Expired

Conditions
Rain
Cloud Levels

May-25@
21:00 UTC

May-25 @ 21:00 UTC

May-26@
04:00 UTC

May-26 @ 04:00 UTC

PROB40 TEMPO 2521/2604 3000 RADZ BKN008

Expired

Conditions
Rain, Drizzle
Cloud Levels
  • Broken at 800' AGL

May-26@
03:00 UTC

May-26 @ 03:00 UTC

May-26@
06:00 UTC

May-26 @ 06:00 UTC

BECMG 2603/2606 28007KT

Becoming

Becoming Conditions expected by Tue, May 26, 2020 @ 06:00 UTC

Wind
  • 280° at 7 KTS
Cloud Levels
  • Scattered at 3,000' AGL